sensor_id;sensor_type;location;lat;lon;timestamp;temperature;humidity
28763;DHT22;15918;51.270;6.522;2024-01-06T00:00:57;10.90;75.60
28763;DHT22;15918;51.270;6.522;2024-01-06T00:03:22;10.80;75.60
28763;DHT22;15918;51.270;6.522;2024-01-06T00:05:48;10.80;75.60
28763;DHT22;15918;51.270;6.522;2024-01-06T00:08:13;10.80;75.60
28763;DHT22;15918;51.270;6.522;2024-01-06T00:10:39;10.90;75.60
28763;DHT22;15918;51.270;6.522;2024-01-06T00:13:05;10.90;75.60
28763;DHT22;15918;51.270;6.522;2024-01-06T00:15:30;10.90;75.60
28763;DHT22;15918;51.270;6.522;2024-01-06T00:17:56;10.90;75.70
28763;DHT22;15918;51.270;6.522;2024-01-06T00:20:21;10.90;75.70
28763;DHT22;15918;51.270;6.522;2024-01-06T00:22:47;10.90;75.70
28763;DHT22;15918;51.270;6.522;2024-01-06T00:25:13;10.90;75.70
28763;DHT22;15918;51.270;6.522;2024-01-06T00:27:38;10.90;75.70
28763;DHT22;15918;51.270;6.522;2024-01-06T00:30:04;10.90;75.70
28763;DHT22;15918;51.270;6.522;2024-01-06T00:32:30;10.90;75.80
28763;DHT22;15918;51.270;6.522;2024-01-06T00:34:56;10.90;75.70
28763;DHT22;15918;51.270;6.522;2024-01-06T00:37:21;10.90;75.70
28763;DHT22;15918;51.270;6.522;2024-01-06T00:39:47;10.90;75.70
28763;DHT22;15918;51.270;6.522;2024-01-06T00:42:12;10.90;75.80
28763;DHT22;15918;51.270;6.522;2024-01-06T00:44:38;10.90;75.80
28763;DHT22;15918;51.270;6.522;2024-01-06T00:47:04;10.90;75.90
28763;DHT22;15918;51.270;6.522;2024-01-06T00:49:29;10.90;75.90
28763;DHT22;15918;51.270;6.522;2024-01-06T00:51:55;10.90;75.90
28763;DHT22;15918;51.270;6.522;2024-01-06T00:54:21;10.90;75.90
28763;DHT22;15918;51.270;6.522;2024-01-06T00:56:46;10.90;75.90
28763;DHT22;15918;51.270;6.522;2024-01-06T00:59:12;10.90;75.90
28763;DHT22;15918;51.270;6.522;2024-01-06T01:01:37;10.90;75.90
28763;DHT22;15918;51.270;6.522;2024-01-06T01:04:03;10.90;75.90
28763;DHT22;15918;51.270;6.522;2024-01-06T01:06:28;10.90;75.90
28763;DHT22;15918;51.270;6.522;2024-01-06T01:08:54;10.90;76.00
28763;DHT22;15918;51.270;6.522;2024-01-06T01:11:20;10.90;75.90
28763;DHT22;15918;51.270;6.522;2024-01-06T01:13:46;10.90;75.90
28763;DHT22;15918;51.270;6.522;2024-01-06T01:16:11;10.90;75.90
28763;DHT22;15918;51.270;6.522;2024-01-06T01:18:37;10.90;75.90
28763;DHT22;15918;51.270;6.522;2024-01-06T01:21:02;10.90;75.90
28763;DHT22;15918;51.270;6.522;2024-01-06T01:23:28;10.90;76.00
28763;DHT22;15918;51.270;6.522;2024-01-06T01:25:54;10.90;76.00
28763;DHT22;15918;51.270;6.522;2024-01-06T01:28:19;10.90;76.00
28763;DHT22;15918;51.270;6.522;2024-01-06T01:30:45;10.90;76.00
28763;DHT22;15918;51.270;6.522;2024-01-06T01:33:11;10.90;76.00
28763;DHT22;15918;51.270;6.522;2024-01-06T01:35:36;10.90;76.00
28763;DHT22;15918;51.270;6.522;2024-01-06T01:38:02;10.90;76.00
28763;DHT22;15918;51.270;6.522;2024-01-06T01:40:28;10.90;76.10
28763;DHT22;15918;51.270;6.522;2024-01-06T01:42:53;10.90;76.10
28763;DHT22;15918;51.270;6.522;2024-01-06T01:45:19;10.90;76.10
28763;DHT22;15918;51.270;6.522;2024-01-06T01:47:45;10.90;76.10
28763;DHT22;15918;51.270;6.522;2024-01-06T01:50:12;11.00;76.20
28763;DHT22;15918;51.270;6.522;2024-01-06T01:52:38;10.90;76.20
28763;DHT22;15918;51.270;6.522;2024-01-06T01:55:05;10.90;76.20
28763;DHT22;15918;51.270;6.522;2024-01-06T01:57:31;10.90;76.30
28763;DHT22;15918;51.270;6.522;2024-01-06T01:59:57;10.90;76.30
28763;DHT22;15918;51.270;6.522;2024-01-06T02:02:23;10.90;76.30
28763;DHT22;15918;51.270;6.522;2024-01-06T02:04:48;11.00;76.40
28763;DHT22;15918;51.270;6.522;2024-01-06T02:07:14;11.00;77.10
28763;DHT22;15918;51.270;6.522;2024-01-06T02:09:40;10.90;76.40
28763;DHT22;15918;51.270;6.522;2024-01-06T02:12:06;10.90;76.40
28763;DHT22;15918;51.270;6.522;2024-01-06T02:14:31;11.00;76.40
28763;DHT22;15918;51.270;6.522;2024-01-06T02:16:58;11.00;76.40
28763;DHT22;15918;51.270;6.522;2024-01-06T02:19:24;11.00;76.40
28763;DHT22;15918;51.270;6.522;2024-01-06T02:21:53;11.00;76.40
28763;DHT22;15918;51.270;6.522;2024-01-06T02:24:19;11.00;76.20
28763;DHT22;15918;51.270;6.522;2024-01-06T02:26:45;11.00;76.30
28763;DHT22;15918;51.270;6.522;2024-01-06T02:29:11;11.00;76.30
28763;DHT22;15918;51.270;6.522;2024-01-06T02:31:36;11.00;76.20
28763;DHT22;15918;51.270;6.522;2024-01-06T02:34:02;11.00;76.20
28763;DHT22;15918;51.270;6.522;2024-01-06T02:36:27;11.00;76.20
28763;DHT22;15918;51.270;6.522;2024-01-06T02:38:53;11.00;76.20
28763;DHT22;15918;51.270;6.522;2024-01-06T02:41:18;11.00;76.10
28763;DHT22;15918;51.270;6.522;2024-01-06T02:43:44;11.00;76.10
28763;DHT22;15918;51.270;6.522;2024-01-06T02:46:09;11.00;76.10
28763;DHT22;15918;51.270;6.522;2024-01-06T02:48:35;11.00;76.10
28763;DHT22;15918;51.270;6.522;2024-01-06T02:51:00;11.00;76.10
28763;DHT22;15918;51.270;6.522;2024-01-06T02:53:26;11.00;76.00
28763;DHT22;15918;51.270;6.522;2024-01-06T02:55:51;11.00;75.80
28763;DHT22;15918;51.270;6.522;2024-01-06T02:58:17;11.00;75.80
28763;DHT22;15918;51.270;6.522;2024-01-06T03:00:43;11.00;75.80
28763;DHT22;15918;51.270;6.522;2024-01-06T03:03:08;11.00;75.80
28763;DHT22;15918;51.270;6.522;2024-01-06T03:05:34;11.00;75.80
28763;DHT22;15918;51.270;6.522;2024-01-06T03:07:59;11.00;75.70
28763;DHT22;15918;51.270;6.522;2024-01-06T03:10:26;11.00;75.80
28763;DHT22;15918;51.270;6.522;2024-01-06T03:12:51;11.00;75.80
28763;DHT22;15918;51.270;6.522;2024-01-06T03:15:17;11.00;75.80
28763;DHT22;15918;51.270;6.522;2024-01-06T03:17:42;11.00;75.90
28763;DHT22;15918;51.270;6.522;2024-01-06T03:20:08;11.00;75.90
28763;DHT22;15918;51.270;6.522;2024-01-06T03:22:34;11.00;75.80
28763;DHT22;15918;51.270;6.522;2024-01-06T03:25:00;11.00;75.80
28763;DHT22;15918;51.270;6.522;2024-01-06T03:27:25;11.00;75.50
28763;DHT22;15918;51.270;6.522;2024-01-06T03:29:51;11.00;75.30
28763;DHT22;15918;51.270;6.522;2024-01-06T03:32:17;11.00;75.20
28763;DHT22;15918;51.270;6.522;2024-01-06T03:34:42;11.00;75.00
28763;DHT22;15918;51.270;6.522;2024-01-06T03:37:08;10.90;74.90
28763;DHT22;15918;51.270;6.522;2024-01-06T03:39:33;11.00;74.90
28763;DHT22;15918;51.270;6.522;2024-01-06T03:41:59;10.90;74.70
28763;DHT22;15918;51.270;6.522;2024-01-06T03:44:25;10.90;74.60
28763;DHT22;15918;51.270;6.522;2024-01-06T03:46:58;10.90;74.50
28763;DHT22;15918;51.270;6.522;2024-01-06T03:49:24;10.90;74.40
28763;DHT22;15918;51.270;6.522;2024-01-06T03:51:49;10.90;74.20
28763;DHT22;15918;51.270;6.522;2024-01-06T03:54:15;10.90;74.10
28763;DHT22;15918;51.270;6.522;2024-01-06T03:56:40;10.90;74.10
28763;DHT22;15918;51.270;6.522;2024-01-06T03:59:06;10.90;73.90
28763;DHT22;15918;51.270;6.522;2024-01-06T04:01:32;10.90;73.90
28763;DHT22;15918;51.270;6.522;2024-01-06T04:04:02;10.90;73.80
28763;DHT22;15918;51.270;6.522;2024-01-06T04:06:28;10.90;73.70
28763;DHT22;15918;51.270;6.522;2024-01-06T04:08:54;10.90;73.70
28763;DHT22;15918;51.270;6.522;2024-01-06T04:11:20;10.90;73.60
28763;DHT22;15918;51.270;6.522;2024-01-06T04:13:46;10.90;73.50
28763;DHT22;15918;51.270;6.522;2024-01-06T04:16:12;10.90;73.50
28763;DHT22;15918;51.270;6.522;2024-01-06T04:18:37;10.80;73.40
28763;DHT22;15918;51.270;6.522;2024-01-06T04:21:03;10.80;73.40
28763;DHT22;15918;51.270;6.522;2024-01-06T04:23:30;10.90;73.40
28763;DHT22;15918;51.270;6.522;2024-01-06T04:25:56;10.90;73.40
28763;DHT22;15918;51.270;6.522;2024-01-06T04:28:21;10.90;73.40
28763;DHT22;15918;51.270;6.522;2024-01-06T04:30:47;10.90;73.40
28763;DHT22;15918;51.270;6.522;2024-01-06T04:33:13;10.90;74.10
28763;DHT22;15918;51.270;6.522;2024-01-06T04:35:38;10.90;73.30
28763;DHT22;15918;51.270;6.522;2024-01-06T04:38:04;10.90;73.30
28763;DHT22;15918;51.270;6.522;2024-01-06T04:40:30;10.80;73.40
28763;DHT22;15918;51.270;6.522;2024-01-06T04:42:55;10.80;73.30
28763;DHT22;15918;51.270;6.522;2024-01-06T04:45:21;10.90;73.40
28763;DHT22;15918;51.270;6.522;2024-01-06T04:47:49;10.90;73.40
28763;DHT22;15918;51.270;6.522;2024-01-06T04:50:15;10.80;73.30
28763;DHT22;15918;51.270;6.522;2024-01-06T04:52:40;10.90;73.30
28763;DHT22;15918;51.270;6.522;2024-01-06T04:55:06;10.90;74.00
28763;DHT22;15918;51.270;6.522;2024-01-06T04:57:32;10.90;73.20
28763;DHT22;15918;51.270;6.522;2024-01-06T04:59:58;10.80;73.20
28763;DHT22;15918;51.270;6.522;2024-01-06T05:02:23;10.90;73.20
28763;DHT22;15918;51.270;6.522;2024-01-06T05:04:49;10.90;73.20
28763;DHT22;15918;51.270;6.522;2024-01-06T05:07:15;10.80;73.10
28763;DHT22;15918;51.270;6.522;2024-01-06T05:09:40;10.80;73.00
28763;DHT22;15918;51.270;6.522;2024-01-06T05:12:06;10.90;73.10
28763;DHT22;15918;51.270;6.522;2024-01-06T05:14:32;10.80;73.00
28763;DHT22;15918;51.270;6.522;2024-01-06T05:16:58;10.80;73.00
28763;DHT22;15918;51.270;6.522;2024-01-06T05:19:23;10.90;73.10
28763;DHT22;15918;51.270;6.522;2024-01-06T05:21:49;10.80;73.00
28763;DHT22;15918;51.270;6.522;2024-01-06T05:24:15;10.80;73.00
28763;DHT22;15918;51.270;6.522;2024-01-06T05:26:40;10.80;73.00
28763;DHT22;15918;51.270;6.522;2024-01-06T05:29:07;10.80;72.90
28763;DHT22;15918;51.270;6.522;2024-01-06T05:31:33;10.80;72.90
28763;DHT22;15918;51.270;6.522;2024-01-06T05:33:58;10.80;72.90
28763;DHT22;15918;51.270;6.522;2024-01-06T05:36:24;10.80;72.80
28763;DHT22;15918;51.270;6.522;2024-01-06T05:38:50;10.80;72.80
28763;DHT22;15918;51.270;6.522;2024-01-06T05:41:16;10.80;72.70
28763;DHT22;15918;51.270;6.522;2024-01-06T05:43:41;10.80;72.70
28763;DHT22;15918;51.270;6.522;2024-01-06T05:46:07;10.80;72.80
28763;DHT22;15918;51.270;6.522;2024-01-06T05:48:33;10.80;72.80
28763;DHT22;15918;51.270;6.522;2024-01-06T05:50:58;10.80;72.70
28763;DHT22;15918;51.270;6.522;2024-01-06T05:53:24;10.80;72.70
28763;DHT22;15918;51.270;6.522;2024-01-06T05:55:50;10.70;72.60
28763;DHT22;15918;51.270;6.522;2024-01-06T05:58:16;10.70;72.70
28763;DHT22;15918;51.270;6.522;2024-01-06T06:00:41;10.70;72.60
28763;DHT22;15918;51.270;6.522;2024-01-06T06:03:07;10.70;72.50
28763;DHT22;15918;51.270;6.522;2024-01-06T06:05:33;10.70;72.50
28763;DHT22;15918;51.270;6.522;2024-01-06T06:07:58;10.70;72.40
28763;DHT22;15918;51.270;6.522;2024-01-06T06:10:24;10.70;72.40
28763;DHT22;15918;51.270;6.522;2024-01-06T06:12:55;10.70;72.50
28763;DHT22;15918;51.270;6.522;2024-01-06T06:15:21;10.70;72.50
28763;DHT22;15918;51.270;6.522;2024-01-06T06:17:46;10.70;72.50
28763;DHT22;15918;51.270;6.522;2024-01-06T06:20:12;10.70;72.40
28763;DHT22;15918;51.270;6.522;2024-01-06T06:22:38;10.70;72.40
28763;DHT22;15918;51.270;6.522;2024-01-06T06:25:03;10.70;72.50
28763;DHT22;15918;51.270;6.522;2024-01-06T06:27:29;10.70;72.40
28763;DHT22;15918;51.270;6.522;2024-01-06T06:29:55;10.70;72.40
28763;DHT22;15918;51.270;6.522;2024-01-06T06:32:23;10.70;72.30
28763;DHT22;15918;51.270;6.522;2024-01-06T06:34:50;10.70;72.20
28763;DHT22;15918;51.270;6.522;2024-01-06T06:37:15;10.70;72.20
28763;DHT22;15918;51.270;6.522;2024-01-06T06:39:41;10.70;72.10
28763;DHT22;15918;51.270;6.522;2024-01-06T06:42:09;10.60;72.20
28763;DHT22;15918;51.270;6.522;2024-01-06T06:47:10;10.60;72.10
28763;DHT22;15918;51.270;6.522;2024-01-06T06:49:36;10.70;71.90
28763;DHT22;15918;51.270;6.522;2024-01-06T06:52:02;10.70;72.00
28763;DHT22;15918;51.270;6.522;2024-01-06T06:54:29;10.60;71.70
28763;DHT22;15918;51.270;6.522;2024-01-06T06:56:54;10.70;71.80
28763;DHT22;15918;51.270;6.522;2024-01-06T06:59:20;10.60;72.10
28763;DHT22;15918;51.270;6.522;2024-01-06T07:01:46;10.60;72.20
28763;DHT22;15918;51.270;6.522;2024-01-06T07:04:11;10.60;72.20
28763;DHT22;15918;51.270;6.522;2024-01-06T07:06:37;10.60;72.20
28763;DHT22;15918;51.270;6.522;2024-01-06T07:09:02;10.60;72.20
28763;DHT22;15918;51.270;6.522;2024-01-06T07:11:30;10.50;72.10
28763;DHT22;15918;51.270;6.522;2024-01-06T07:13:55;10.50;72.10
28763;DHT22;15918;51.270;6.522;2024-01-06T07:16:21;10.60;72.20
28763;DHT22;15918;51.270;6.522;2024-01-06T07:18:47;10.60;73.00
28763;DHT22;15918;51.270;6.522;2024-01-06T07:21:12;10.60;72.90
28763;DHT22;15918;51.270;6.522;2024-01-06T07:23:41;10.60;72.10
28763;DHT22;15918;51.270;6.522;2024-01-06T07:26:07;10.50;72.00
28763;DHT22;15918;51.270;6.522;2024-01-06T07:28:33;10.50;72.00
28763;DHT22;15918;51.270;6.522;2024-01-06T07:31:00;10.50;72.00
28763;DHT22;15918;51.270;6.522;2024-01-06T07:33:26;10.60;72.10
28763;DHT22;15918;51.270;6.522;2024-01-06T07:35:51;10.50;72.00
28763;DHT22;15918;51.270;6.522;2024-01-06T07:38:17;10.60;72.10
28763;DHT22;15918;51.270;6.522;2024-01-06T07:40:42;10.50;72.00
28763;DHT22;15918;51.270;6.522;2024-01-06T07:43:09;10.50;72.00
28763;DHT22;15918;51.270;6.522;2024-01-06T07:45:35;10.50;72.00
28763;DHT22;15918;51.270;6.522;2024-01-06T07:48:01;10.50;71.90
28763;DHT22;15918;51.270;6.522;2024-01-06T07:50:27;10.50;71.90
28763;DHT22;15918;51.270;6.522;2024-01-06T07:52:53;10.50;71.90
28763;DHT22;15918;51.270;6.522;2024-01-06T07:55:19;10.50;71.80
28763;DHT22;15918;51.270;6.522;2024-01-06T07:57:45;10.50;71.70
28763;DHT22;15918;51.270;6.522;2024-01-06T08:00:11;10.50;71.80
28763;DHT22;15918;51.270;6.522;2024-01-06T08:02:40;10.40;71.80
28763;DHT22;15918;51.270;6.522;2024-01-06T08:05:06;10.40;71.80
28763;DHT22;15918;51.270;6.522;2024-01-06T08:07:32;10.40;71.80
28763;DHT22;15918;51.270;6.522;2024-01-06T08:09:58;10.40;71.70
28763;DHT22;15918;51.270;6.522;2024-01-06T08:12:23;10.50;71.80
28763;DHT22;15918;51.270;6.522;2024-01-06T08:14:49;10.40;71.80
28763;DHT22;15918;51.270;6.522;2024-01-06T08:17:14;10.50;71.80
28763;DHT22;15918;51.270;6.522;2024-01-06T08:19:40;10.40;71.70
28763;DHT22;15918;51.270;6.522;2024-01-06T08:22:07;10.40;71.70
28763;DHT22;15918;51.270;6.522;2024-01-06T08:24:32;10.40;71.70
28763;DHT22;15918;51.270;6.522;2024-01-06T08:26:59;10.40;71.80
28763;DHT22;15918;51.270;6.522;2024-01-06T08:29:24;10.40;71.80
28763;DHT22;15918;51.270;6.522;2024-01-06T08:31:50;10.40;71.80
28763;DHT22;15918;51.270;6.522;2024-01-06T08:34:17;10.40;71.80
28763;DHT22;15918;51.270;6.522;2024-01-06T08:36:43;10.40;71.80
28763;DHT22;15918;51.270;6.522;2024-01-06T08:39:09;10.40;71.70
28763;DHT22;15918;51.270;6.522;2024-01-06T08:41:35;10.40;71.70
28763;DHT22;15918;51.270;6.522;2024-01-06T08:44:00;10.40;71.70
28763;DHT22;15918;51.270;6.522;2024-01-06T08:46:26;10.40;71.70
28763;DHT22;15918;51.270;6.522;2024-01-06T08:48:52;10.40;71.80
28763;DHT22;15918;51.270;6.522;2024-01-06T08:51:17;10.40;71.80
28763;DHT22;15918;51.270;6.522;2024-01-06T08:53:43;10.40;71.80
28763;DHT22;15918;51.270;6.522;2024-01-06T08:56:09;10.40;71.90
28763;DHT22;15918;51.270;6.522;2024-01-06T08:58:34;10.40;71.80
28763;DHT22;15918;51.270;6.522;2024-01-06T09:01:00;10.40;71.80
28763;DHT22;15918;51.270;6.522;2024-01-06T09:03:26;10.40;71.70
28763;DHT22;15918;51.270;6.522;2024-01-06T09:05:56;10.40;71.80
28763;DHT22;15918;51.270;6.522;2024-01-06T09:08:23;10.40;71.70
28763;DHT22;15918;51.270;6.522;2024-01-06T09:10:49;10.40;71.90
28763;DHT22;15918;51.270;6.522;2024-01-06T09:13:17;10.40;71.80
28763;DHT22;15918;51.270;6.522;2024-01-06T09:15:43;10.40;71.80
28763;DHT22;15918;51.270;6.522;2024-01-06T09:18:09;10.40;71.80
28763;DHT22;15918;51.270;6.522;2024-01-06T09:20:35;10.40;71.80
28763;DHT22;15918;51.270;6.522;2024-01-06T09:23:00;10.40;71.90
28763;DHT22;15918;51.270;6.522;2024-01-06T09:25:26;10.40;71.90
28763;DHT22;15918;51.270;6.522;2024-01-06T09:27:52;10.40;71.80
28763;DHT22;15918;51.270;6.522;2024-01-06T09:30:18;10.40;71.80
28763;DHT22;15918;51.270;6.522;2024-01-06T09:32:44;10.40;71.90
28763;DHT22;15918;51.270;6.522;2024-01-06T09:35:09;10.40;71.90
28763;DHT22;15918;51.270;6.522;2024-01-06T09:37:35;10.40;71.90
28763;DHT22;15918;51.270;6.522;2024-01-06T09:40:01;10.40;71.90
28763;DHT22;15918;51.270;6.522;2024-01-06T09:42:26;10.40;71.80
28763;DHT22;15918;51.270;6.522;2024-01-06T09:44:52;10.40;71.80
28763;DHT22;15918;51.270;6.522;2024-01-06T09:47:18;10.30;71.60
28763;DHT22;15918;51.270;6.522;2024-01-06T09:49:49;10.30;71.60
28763;DHT22;15918;51.270;6.522;2024-01-06T09:52:15;10.30;71.60
28763;DHT22;15918;51.270;6.522;2024-01-06T09:54:53;10.40;71.70
28763;DHT22;15918;51.270;6.522;2024-01-06T09:57:20;10.40;71.50
28763;DHT22;15918;51.270;6.522;2024-01-06T09:59:46;10.30;71.60
28763;DHT22;15918;51.270;6.522;2024-01-06T10:02:16;10.30;71.60
28763;DHT22;15918;51.270;6.522;2024-01-06T10:04:43;10.30;71.40
28763;DHT22;15918;51.270;6.522;2024-01-06T10:07:09;10.30;71.60
28763;DHT22;15918;51.270;6.522;2024-01-06T10:09:37;10.30;71.50
28763;DHT22;15918;51.270;6.522;2024-01-06T10:12:03;10.30;71.40
28763;DHT22;15918;51.270;6.522;2024-01-06T10:14:29;10.30;71.40
28763;DHT22;15918;51.270;6.522;2024-01-06T10:16:54;10.30;71.40
28763;DHT22;15918;51.270;6.522;2024-01-06T10:19:20;10.30;71.40
28763;DHT22;15918;51.270;6.522;2024-01-06T10:21:46;10.30;71.40
28763;DHT22;15918;51.270;6.522;2024-01-06T10:24:12;10.30;71.40
28763;DHT22;15918;51.270;6.522;2024-01-06T10:26:37;10.30;71.40
28763;DHT22;15918;51.270;6.522;2024-01-06T10:29:04;10.30;71.40
28763;DHT22;15918;51.270;6.522;2024-01-06T10:31:30;10.30;71.40
28763;DHT22;15918;51.270;6.522;2024-01-06T10:33:56;10.30;71.40
28763;DHT22;15918;51.270;6.522;2024-01-06T10:36:25;10.30;71.40
28763;DHT22;15918;51.270;6.522;2024-01-06T10:38:52;10.30;71.30
28763;DHT22;15918;51.270;6.522;2024-01-06T10:41:19;10.30;71.30
28763;DHT22;15918;51.270;6.522;2024-01-06T10:43:46;10.20;71.30
28763;DHT22;15918;51.270;6.522;2024-01-06T10:46:13;10.20;71.30
28763;DHT22;15918;51.270;6.522;2024-01-06T10:48:42;10.20;71.30
28763;DHT22;15918;51.270;6.522;2024-01-06T10:51:12;10.20;71.20
28763;DHT22;15918;51.270;6.522;2024-01-06T10:53:41;10.30;71.20
28763;DHT22;15918;51.270;6.522;2024-01-06T10:56:09;10.20;71.20
28763;DHT22;15918;51.270;6.522;2024-01-06T10:58:36;10.20;71.20
28763;DHT22;15918;51.270;6.522;2024-01-06T11:01:11;10.20;71.20
28763;DHT22;15918;51.270;6.522;2024-01-06T11:03:38;10.20;71.10
28763;DHT22;15918;51.270;6.522;2024-01-06T11:06:07;10.20;71.10
28763;DHT22;15918;51.270;6.522;2024-01-06T11:08:44;10.20;71.10
28763;DHT22;15918;51.270;6.522;2024-01-06T11:11:18;10.20;71.00
28763;DHT22;15918;51.270;6.522;2024-01-06T11:13:45;10.20;71.10
28763;DHT22;15918;51.270;6.522;2024-01-06T11:16:15;10.20;71.10
28763;DHT22;15918;51.270;6.522;2024-01-06T11:18:58;10.20;71.10
28763;DHT22;15918;51.270;6.522;2024-01-06T11:21:24;10.10;71.10
28763;DHT22;15918;51.270;6.522;2024-01-06T11:26:38;10.20;70.70
28763;DHT22;15918;51.270;6.522;2024-01-06T11:29:04;10.10;70.90
28763;DHT22;15918;51.270;6.522;2024-01-06T11:31:33;10.10;71.00
28763;DHT22;15918;51.270;6.522;2024-01-06T11:34:16;10.10;70.80
28763;DHT22;15918;51.270;6.522;2024-01-06T11:36:45;10.20;70.70
28763;DHT22;15918;51.270;6.522;2024-01-06T11:39:51;10.10;70.80
28763;DHT22;15918;51.270;6.522;2024-01-06T11:42:18;10.10;70.40
28763;DHT22;15918;51.270;6.522;2024-01-06T11:44:45;10.10;71.00
28763;DHT22;15918;51.270;6.522;2024-01-06T11:47:15;10.10;70.80
28763;DHT22;15918;51.270;6.522;2024-01-06T11:49:44;10.10;70.70
28763;DHT22;15918;51.270;6.522;2024-01-06T11:52:11;10.10;70.70
28763;DHT22;15918;51.270;6.522;2024-01-06T11:54:37;10.10;70.60
28763;DHT22;15918;51.270;6.522;2024-01-06T11:57:03;10.10;70.70
28763;DHT22;15918;51.270;6.522;2024-01-06T11:59:29;10.10;70.70
28763;DHT22;15918;51.270;6.522;2024-01-06T12:01:55;10.10;70.70
28763;DHT22;15918;51.270;6.522;2024-01-06T12:04:21;10.10;70.70
28763;DHT22;15918;51.270;6.522;2024-01-06T12:06:47;10.10;70.70
28763;DHT22;15918;51.270;6.522;2024-01-06T12:09:13;10.10;70.70
28763;DHT22;15918;51.270;6.522;2024-01-06T12:11:42;10.10;70.80
28763;DHT22;15918;51.270;6.522;2024-01-06T12:14:10;10.10;70.80
28763;DHT22;15918;51.270;6.522;2024-01-06T12:16:36;10.10;70.80
28763;DHT22;15918;51.270;6.522;2024-01-06T12:19:02;10.10;70.80
28763;DHT22;15918;51.270;6.522;2024-01-06T12:21:29;10.00;70.70
28763;DHT22;15918;51.270;6.522;2024-01-06T12:24:15;10.00;70.70
28763;DHT22;15918;51.270;6.522;2024-01-06T12:26:43;10.10;70.50
28763;DHT22;15918;51.270;6.522;2024-01-06T12:29:09;10.00;70.80
28763;DHT22;15918;51.270;6.522;2024-01-06T12:31:35;10.10;70.70
28763;DHT22;15918;51.270;6.522;2024-01-06T12:34:01;10.00;70.60
28763;DHT22;15918;51.270;6.522;2024-01-06T12:36:26;10.00;70.60
28763;DHT22;15918;51.270;6.522;2024-01-06T12:38:52;10.10;70.60
28763;DHT22;15918;51.270;6.522;2024-01-06T12:41:17;10.00;70.40
28763;DHT22;15918;51.270;6.522;2024-01-06T12:43:43;10.00;70.50
28763;DHT22;15918;51.270;6.522;2024-01-06T12:46:09;10.00;70.50
28763;DHT22;15918;51.270;6.522;2024-01-06T12:48:34;10.00;70.50
28763;DHT22;15918;51.270;6.522;2024-01-06T12:51:00;10.00;70.50
28763;DHT22;15918;51.270;6.522;2024-01-06T12:53:25;10.00;70.50
28763;DHT22;15918;51.270;6.522;2024-01-06T12:55:51;10.00;70.50
28763;DHT22;15918;51.270;6.522;2024-01-06T12:58:16;10.00;70.50
28763;DHT22;15918;51.270;6.522;2024-01-06T13:00:42;10.00;70.50
28763;DHT22;15918;51.270;6.522;2024-01-06T13:03:08;10.00;70.50
28763;DHT22;15918;51.270;6.522;2024-01-06T13:05:34;10.00;70.50
28763;DHT22;15918;51.270;6.522;2024-01-06T13:07:59;10.00;70.40
28763;DHT22;15918;51.270;6.522;2024-01-06T13:10:25;10.00;70.40
28763;DHT22;15918;51.270;6.522;2024-01-06T13:12:50;10.00;70.30
28763;DHT22;15918;51.270;6.522;2024-01-06T13:15:16;9.90;70.30
28763;DHT22;15918;51.270;6.522;2024-01-06T13:17:42;9.90;70.30
28763;DHT22;15918;51.270;6.522;2024-01-06T13:20:08;9.90;70.30
28763;DHT22;15918;51.270;6.522;2024-01-06T13:22:34;9.90;70.20
28763;DHT22;15918;51.270;6.522;2024-01-06T13:24:59;9.90;70.10
28763;DHT22;15918;51.270;6.522;2024-01-06T13:27:25;9.90;70.00
28763;DHT22;15918;51.270;6.522;2024-01-06T13:29:54;9.90;70.10
28763;DHT22;15918;51.270;6.522;2024-01-06T13:32:20;9.90;70.00
28763;DHT22;15918;51.270;6.522;2024-01-06T13:34:47;9.90;70.00
28763;DHT22;15918;51.270;6.522;2024-01-06T13:37:13;9.90;70.00
28763;DHT22;15918;51.270;6.522;2024-01-06T13:39:38;9.80;69.90
28763;DHT22;15918;51.270;6.522;2024-01-06T13:42:04;9.80;69.80
28763;DHT22;15918;51.270;6.522;2024-01-06T13:44:30;9.80;69.70
28763;DHT22;15918;51.270;6.522;2024-01-06T13:46:55;9.80;69.70
28763;DHT22;15918;51.270;6.522;2024-01-06T13:49:22;9.90;69.80
28763;DHT22;15918;51.270;6.522;2024-01-06T13:51:49;9.80;69.60
28763;DHT22;15918;51.270;6.522;2024-01-06T13:54:16;9.80;69.60
28763;DHT22;15918;51.270;6.522;2024-01-06T13:56:41;9.80;69.60
28763;DHT22;15918;51.270;6.522;2024-01-06T13:59:07;9.80;69.50
28763;DHT22;15918;51.270;6.522;2024-01-06T14:01:33;9.80;69.40
28763;DHT22;15918;51.270;6.522;2024-01-06T14:04:00;9.80;69.40
28763;DHT22;15918;51.270;6.522;2024-01-06T14:06:28;9.80;69.30
28763;DHT22;15918;51.270;6.522;2024-01-06T14:08:56;9.90;69.40
28763;DHT22;15918;51.270;6.522;2024-01-06T14:11:22;9.80;69.30
28763;DHT22;15918;51.270;6.522;2024-01-06T14:13:47;9.70;69.10
28763;DHT22;15918;51.270;6.522;2024-01-06T14:16:15;9.80;69.20
28763;DHT22;15918;51.270;6.522;2024-01-06T14:18:41;9.70;69.10
28763;DHT22;15918;51.270;6.522;2024-01-06T14:21:10;9.70;69.10
28763;DHT22;15918;51.270;6.522;2024-01-06T14:23:36;9.80;69.00
28763;DHT22;15918;51.270;6.522;2024-01-06T14:26:03;9.70;68.90
28763;DHT22;15918;51.270;6.522;2024-01-06T14:28:29;9.70;68.90
28763;DHT22;15918;51.270;6.522;2024-01-06T14:30:55;9.70;68.90
28763;DHT22;15918;51.270;6.522;2024-01-06T14:33:21;9.70;68.90
28763;DHT22;15918;51.270;6.522;2024-01-06T14:35:47;9.70;68.90
28763;DHT22;15918;51.270;6.522;2024-01-06T14:38:13;9.70;68.90
28763;DHT22;15918;51.270;6.522;2024-01-06T14:40:38;9.70;69.00
28763;DHT22;15918;51.270;6.522;2024-01-06T14:43:04;9.70;68.70
28763;DHT22;15918;51.270;6.522;2024-01-06T14:45:30;9.70;68.70
28763;DHT22;15918;51.270;6.522;2024-01-06T14:47:56;9.70;68.90
28763;DHT22;15918;51.270;6.522;2024-01-06T14:50:22;9.70;68.90
28763;DHT22;15918;51.270;6.522;2024-01-06T14:52:47;9.70;68.80
28763;DHT22;15918;51.270;6.522;2024-01-06T14:55:14;9.70;68.80
28763;DHT22;15918;51.270;6.522;2024-01-06T14:57:40;9.70;68.90
28763;DHT22;15918;51.270;6.522;2024-01-06T15:00:06;9.60;68.70
28763;DHT22;15918;51.270;6.522;2024-01-06T15:02:32;9.70;68.70
28763;DHT22;15918;51.270;6.522;2024-01-06T15:04:58;9.70;68.70
28763;DHT22;15918;51.270;6.522;2024-01-06T15:07:25;9.60;68.50
28763;DHT22;15918;51.270;6.522;2024-01-06T15:09:50;9.60;68.40
28763;DHT22;15918;51.270;6.522;2024-01-06T15:12:16;9.60;68.60
28763;DHT22;15918;51.270;6.522;2024-01-06T15:14:41;9.60;68.60
28763;DHT22;15918;51.270;6.522;2024-01-06T15:17:07;9.60;68.50
28763;DHT22;15918;51.270;6.522;2024-01-06T15:19:33;9.60;68.50
28763;DHT22;15918;51.270;6.522;2024-01-06T15:21:59;9.60;68.50
28763;DHT22;15918;51.270;6.522;2024-01-06T15:24:24;9.60;69.10
28763;DHT22;15918;51.270;6.522;2024-01-06T15:26:50;9.50;68.30
28763;DHT22;15918;51.270;6.522;2024-01-06T15:29:20;9.60;68.30
28763;DHT22;15918;51.270;6.522;2024-01-06T15:31:45;9.50;68.30